sensor_id;sensor_type;location;lat;lon;timestamp;temperature;humidity
44843;DHT22;31884;52.538;13.820;2023-06-19T00:02:14;14.80;99.90
44843;DHT22;31884;52.538;13.820;2023-06-19T00:04:39;14.80;99.90
44843;DHT22;31884;52.538;13.820;2023-06-19T00:07:05;14.80;99.90
44843;DHT22;31884;52.538;13.820;2023-06-19T00:09:31;14.70;99.90
44843;DHT22;31884;52.538;13.820;2023-06-19T00:11:56;14.70;99.90
44843;DHT22;31884;52.538;13.820;2023-06-19T00:14:23;14.70;99.90
44843;DHT22;31884;52.538;13.820;2023-06-19T00:16:49;14.70;99.90
44843;DHT22;31884;52.538;13.820;2023-06-19T00:19:16;14.60;99.90
44843;DHT22;31884;52.538;13.820;2023-06-19T00:21:42;14.60;99.90
44843;DHT22;31884;52.538;13.820;2023-06-19T00:24:08;14.60;99.90
44843;DHT22;31884;52.538;13.820;2023-06-19T00:26:34;14.50;99.90
44843;DHT22;31884;52.538;13.820;2023-06-19T00:28:59;14.50;99.90
44843;DHT22;31884;52.538;13.820;2023-06-19T00:31:25;14.50;99.90
44843;DHT22;31884;52.538;13.820;2023-06-19T00:33:52;14.50;99.90
44843;DHT22;31884;52.538;13.820;2023-06-19T00:36:18;14.40;99.90
44843;DHT22;31884;52.538;13.820;2023-06-19T00:38:45;14.40;99.90
44843;DHT22;31884;52.538;13.820;2023-06-19T00:41:11;14.40;99.90
44843;DHT22;31884;52.538;13.820;2023-06-19T00:43:37;14.30;99.90
44843;DHT22;31884;52.538;13.820;2023-06-19T00:46:03;14.40;99.90
44843;DHT22;31884;52.538;13.820;2023-06-19T00:48:30;14.30;99.90
44843;DHT22;31884;52.538;13.820;2023-06-19T00:50:57;14.30;99.90
44843;DHT22;31884;52.538;13.820;2023-06-19T00:53:23;14.30;99.90
44843;DHT22;31884;52.538;13.820;2023-06-19T00:55:50;14.20;99.90
44843;DHT22;31884;52.538;13.820;2023-06-19T00:58:17;14.20;99.90
44843;DHT22;31884;52.538;13.820;2023-06-19T01:00:44;14.20;99.90
44843;DHT22;31884;52.538;13.820;2023-06-19T01:03:09;14.20;99.90
44843;DHT22;31884;52.538;13.820;2023-06-19T01:05:35;14.20;99.90
44843;DHT22;31884;52.538;13.820;2023-06-19T01:11:09;14.20;99.90
44843;DHT22;31884;52.538;13.820;2023-06-19T01:14:08;14.20;99.90
44843;DHT22;31884;52.538;13.820;2023-06-19T01:16:35;14.20;99.90
44843;DHT22;31884;52.538;13.820;2023-06-19T01:19:00;14.30;99.90
44843;DHT22;31884;52.538;13.820;2023-06-19T01:21:26;14.20;99.90
44843;DHT22;31884;52.538;13.820;2023-06-19T01:23:52;14.30;99.90
44843;DHT22;31884;52.538;13.820;2023-06-19T01:26:17;14.30;99.90
44843;DHT22;31884;52.538;13.820;2023-06-19T01:28:46;14.30;99.90
44843;DHT22;31884;52.538;13.820;2023-06-19T01:31:17;14.40;99.90
44843;DHT22;31884;52.538;13.820;2023-06-19T01:33:46;14.50;99.90
44843;DHT22;31884;52.538;13.820;2023-06-19T01:36:12;14.40;99.90
44843;DHT22;31884;52.538;13.820;2023-06-19T01:38:40;14.50;99.90
44843;DHT22;31884;52.538;13.820;2023-06-19T01:41:06;14.60;99.90
44843;DHT22;31884;52.538;13.820;2023-06-19T01:43:33;14.60;99.90
44843;DHT22;31884;52.538;13.820;2023-06-19T01:46:00;14.60;99.90
44843;DHT22;31884;52.538;13.820;2023-06-19T01:48:26;14.70;99.90
44843;DHT22;31884;52.538;13.820;2023-06-19T01:50:52;14.70;99.90
44843;DHT22;31884;52.538;13.820;2023-06-19T01:53:17;14.80;99.90
44843;DHT22;31884;52.538;13.820;2023-06-19T01:55:43;14.80;99.90
44843;DHT22;31884;52.538;13.820;2023-06-19T01:58:09;14.80;99.90
44843;DHT22;31884;52.538;13.820;2023-06-19T02:00:34;14.80;99.90
44843;DHT22;31884;52.538;13.820;2023-06-19T02:03:01;14.80;99.90
44843;DHT22;31884;52.538;13.820;2023-06-19T02:05:26;14.80;99.90
44843;DHT22;31884;52.538;13.820;2023-06-19T02:07:52;14.80;99.90
44843;DHT22;31884;52.538;13.820;2023-06-19T02:10:17;14.80;99.90
44843;DHT22;31884;52.538;13.820;2023-06-19T02:12:43;14.80;99.90
44843;DHT22;31884;52.538;13.820;2023-06-19T02:15:09;14.80;99.90
44843;DHT22;31884;52.538;13.820;2023-06-19T02:17:34;14.70;99.90
44843;DHT22;31884;52.538;13.820;2023-06-19T02:20:00;14.70;99.90
44843;DHT22;31884;52.538;13.820;2023-06-19T02:22:25;14.70;99.90
44843;DHT22;31884;52.538;13.820;2023-06-19T02:24:51;14.70;99.90
44843;DHT22;31884;52.538;13.820;2023-06-19T02:27:16;14.60;99.90
44843;DHT22;31884;52.538;13.820;2023-06-19T02:29:42;14.70;99.90
44843;DHT22;31884;52.538;13.820;2023-06-19T02:32:07;14.70;99.90
44843;DHT22;31884;52.538;13.820;2023-06-19T02:34:33;14.70;99.90
44843;DHT22;31884;52.538;13.820;2023-06-19T02:36:59;14.70;99.90
44843;DHT22;31884;52.538;13.820;2023-06-19T02:39:24;14.80;99.90
44843;DHT22;31884;52.538;13.820;2023-06-19T02:41:50;14.80;99.90
44843;DHT22;31884;52.538;13.820;2023-06-19T02:44:15;14.80;99.90
44843;DHT22;31884;52.538;13.820;2023-06-19T02:46:41;14.80;99.90
44843;DHT22;31884;52.538;13.820;2023-06-19T02:49:06;14.80;99.90
44843;DHT22;31884;52.538;13.820;2023-06-19T02:51:32;14.90;99.90
44843;DHT22;31884;52.538;13.820;2023-06-19T02:53:57;14.90;99.90
44843;DHT22;31884;52.538;13.820;2023-06-19T02:56:24;14.90;99.90
44843;DHT22;31884;52.538;13.820;2023-06-19T02:58:50;15.00;99.90
44843;DHT22;31884;52.538;13.820;2023-06-19T03:01:15;15.00;99.90
44843;DHT22;31884;52.538;13.820;2023-06-19T03:03:41;14.90;99.90
44843;DHT22;31884;52.538;13.820;2023-06-19T03:06:07;14.90;99.90
44843;DHT22;31884;52.538;13.820;2023-06-19T03:08:34;14.90;99.90
44843;DHT22;31884;52.538;13.820;2023-06-19T03:11:00;15.00;99.90
44843;DHT22;31884;52.538;13.820;2023-06-19T03:13:26;15.00;99.90
44843;DHT22;31884;52.538;13.820;2023-06-19T03:15:51;15.00;99.90
44843;DHT22;31884;52.538;13.820;2023-06-19T03:18:17;15.00;99.90
44843;DHT22;31884;52.538;13.820;2023-06-19T03:20:42;15.10;99.90
44843;DHT22;31884;52.538;13.820;2023-06-19T03:23:08;15.10;99.90
44843;DHT22;31884;52.538;13.820;2023-06-19T03:25:34;15.20;99.90
44843;DHT22;31884;52.538;13.820;2023-06-19T03:28:01;15.20;99.90
44843;DHT22;31884;52.538;13.820;2023-06-19T03:30:28;15.40;99.90
44843;DHT22;31884;52.538;13.820;2023-06-19T03:32:53;15.40;99.90
44843;DHT22;31884;52.538;13.820;2023-06-19T03:35:19;15.50;99.90
44843;DHT22;31884;52.538;13.820;2023-06-19T03:37:44;15.70;99.90
44843;DHT22;31884;52.538;13.820;2023-06-19T03:40:10;16.30;99.90
44843;DHT22;31884;52.538;13.820;2023-06-19T03:42:41;16.80;99.90
44843;DHT22;31884;52.538;13.820;2023-06-19T03:45:07;17.50;99.90
44843;DHT22;31884;52.538;13.820;2023-06-19T03:47:32;18.10;99.90
44843;DHT22;31884;52.538;13.820;2023-06-19T03:49:58;18.80;99.90
44843;DHT22;31884;52.538;13.820;2023-06-19T03:52:23;19.30;99.90
44843;DHT22;31884;52.538;13.820;2023-06-19T03:54:49;19.50;99.90
44843;DHT22;31884;52.538;13.820;2023-06-19T03:57:15;20.10;99.90
44843;DHT22;31884;52.538;13.820;2023-06-19T03:59:40;20.70;99.90
44843;DHT22;31884;52.538;13.820;2023-06-19T04:02:06;21.40;97.80
44843;DHT22;31884;52.538;13.820;2023-06-19T04:04:31;22.10;96.00
44843;DHT22;31884;52.538;13.820;2023-06-19T04:06:56;22.60;94.70
44843;DHT22;31884;52.538;13.820;2023-06-19T04:09:24;22.50;93.90
44843;DHT22;31884;52.538;13.820;2023-06-19T04:11:50;22.30;93.30
44843;DHT22;31884;52.538;13.820;2023-06-19T04:14:15;22.00;92.80
44843;DHT22;31884;52.538;13.820;2023-06-19T04:16:41;21.70;92.40
44843;DHT22;31884;52.538;13.820;2023-06-19T04:19:06;21.50;91.70
44843;DHT22;31884;52.538;13.820;2023-06-19T04:21:31;21.30;90.60
44843;DHT22;31884;52.538;13.820;2023-06-19T04:23:57;21.70;87.60
44843;DHT22;31884;52.538;13.820;2023-06-19T04:26:22;21.80;84.20
44843;DHT22;31884;52.538;13.820;2023-06-19T04:28:49;21.50;84.00
44843;DHT22;31884;52.538;13.820;2023-06-19T04:31:15;21.20;84.90
44843;DHT22;31884;52.538;13.820;2023-06-19T04:33:43;20.90;84.10
44843;DHT22;31884;52.538;13.820;2023-06-19T04:36:09;20.70;85.80
44843;DHT22;31884;52.538;13.820;2023-06-19T04:38:35;20.40;84.60
44843;DHT22;31884;52.538;13.820;2023-06-19T04:41:00;20.20;84.70
44843;DHT22;31884;52.538;13.820;2023-06-19T04:43:26;20.00;84.40
44843;DHT22;31884;52.538;13.820;2023-06-19T04:45:51;19.80;84.80
44843;DHT22;31884;52.538;13.820;2023-06-19T04:48:17;19.60;85.30
44843;DHT22;31884;52.538;13.820;2023-06-19T04:50:42;19.30;85.10
44843;DHT22;31884;52.538;13.820;2023-06-19T04:53:08;19.20;86.10
44843;DHT22;31884;52.538;13.820;2023-06-19T04:55:33;19.20;87.40
44843;DHT22;31884;52.538;13.820;2023-06-19T04:57:59;19.10;87.70
44843;DHT22;31884;52.538;13.820;2023-06-19T05:00:24;19.10;87.50
44843;DHT22;31884;52.538;13.820;2023-06-19T05:02:50;19.10;88.00
44843;DHT22;31884;52.538;13.820;2023-06-19T05:05:16;19.10;87.60
44843;DHT22;31884;52.538;13.820;2023-06-19T05:07:42;19.10;88.00
44843;DHT22;31884;52.538;13.820;2023-06-19T05:10:08;19.10;88.10
44843;DHT22;31884;52.538;13.820;2023-06-19T05:12:35;19.20;87.90
44843;DHT22;31884;52.538;13.820;2023-06-19T05:15:01;19.20;87.50
44843;DHT22;31884;52.538;13.820;2023-06-19T05:17:27;19.10;87.30
44843;DHT22;31884;52.538;13.820;2023-06-19T05:19:52;19.20;87.60
44843;DHT22;31884;52.538;13.820;2023-06-19T05:22:18;19.30;87.10
44843;DHT22;31884;52.538;13.820;2023-06-19T05:24:44;19.30;87.00
44843;DHT22;31884;52.538;13.820;2023-06-19T05:27:10;19.40;87.10
44843;DHT22;31884;52.538;13.820;2023-06-19T05:29:35;19.50;86.70
44843;DHT22;31884;52.538;13.820;2023-06-19T05:32:01;19.40;85.70
44843;DHT22;31884;52.538;13.820;2023-06-19T05:34:26;19.50;86.00
44843;DHT22;31884;52.538;13.820;2023-06-19T05:36:52;19.50;85.70
44843;DHT22;31884;52.538;13.820;2023-06-19T05:39:17;19.60;86.20
44843;DHT22;31884;52.538;13.820;2023-06-19T05:41:44;19.60;86.50
44843;DHT22;31884;52.538;13.820;2023-06-19T05:44:11;19.60;85.60
44843;DHT22;31884;52.538;13.820;2023-06-19T05:46:40;19.60;85.70
44843;DHT22;31884;52.538;13.820;2023-06-19T05:49:05;19.60;86.00
44843;DHT22;31884;52.538;13.820;2023-06-19T05:51:31;19.70;85.70
44843;DHT22;31884;52.538;13.820;2023-06-19T05:53:56;19.80;85.80
44843;DHT22;31884;52.538;13.820;2023-06-19T05:56:26;19.80;85.70
44843;DHT22;31884;52.538;13.820;2023-06-19T05:58:51;19.90;85.90
44843;DHT22;31884;52.538;13.820;2023-06-19T06:01:17;19.90;85.60
44843;DHT22;31884;52.538;13.820;2023-06-19T06:03:43;20.00;85.70
44843;DHT22;31884;52.538;13.820;2023-06-19T06:06:08;20.10;85.90
44843;DHT22;31884;52.538;13.820;2023-06-19T06:08:34;20.10;85.80
44843;DHT22;31884;52.538;13.820;2023-06-19T06:10:59;20.10;85.30
44843;DHT22;31884;52.538;13.820;2023-06-19T06:13:25;20.20;84.80
44843;DHT22;31884;52.538;13.820;2023-06-19T06:15:51;20.30;84.40
44843;DHT22;31884;52.538;13.820;2023-06-19T06:18:16;20.30;84.10
44843;DHT22;31884;52.538;13.820;2023-06-19T06:20:42;20.30;83.60
44843;DHT22;31884;52.538;13.820;2023-06-19T06:23:07;20.40;83.20
44843;DHT22;31884;52.538;13.820;2023-06-19T06:25:33;20.30;83.10
44843;DHT22;31884;52.538;13.820;2023-06-19T06:27:58;20.20;81.90
44843;DHT22;31884;52.538;13.820;2023-06-19T06:30:24;20.20;83.10
44843;DHT22;31884;52.538;13.820;2023-06-19T06:32:50;20.20;83.60
44843;DHT22;31884;52.538;13.820;2023-06-19T06:35:16;20.10;83.40
44843;DHT22;31884;52.538;13.820;2023-06-19T06:37:41;20.00;83.60
44843;DHT22;31884;52.538;13.820;2023-06-19T06:40:09;20.00;84.40
44843;DHT22;31884;52.538;13.820;2023-06-19T06:42:36;20.00;84.50
44843;DHT22;31884;52.538;13.820;2023-06-19T06:45:02;20.10;83.90
44843;DHT22;31884;52.538;13.820;2023-06-19T06:47:28;20.20;83.90
44843;DHT22;31884;52.538;13.820;2023-06-19T06:49:53;20.20;82.60
44843;DHT22;31884;52.538;13.820;2023-06-19T06:52:19;20.20;82.00
44843;DHT22;31884;52.538;13.820;2023-06-19T06:54:44;20.30;82.30
44843;DHT22;31884;52.538;13.820;2023-06-19T06:57:10;20.30;82.10
44843;DHT22;31884;52.538;13.820;2023-06-19T06:59:35;20.40;82.20
44843;DHT22;31884;52.538;13.820;2023-06-19T07:02:01;20.40;81.80
44843;DHT22;31884;52.538;13.820;2023-06-19T07:04:26;20.40;81.50
44843;DHT22;31884;52.538;13.820;2023-06-19T07:06:52;20.50;81.60
44843;DHT22;31884;52.538;13.820;2023-06-19T07:09:18;20.60;81.80
44843;DHT22;31884;52.538;13.820;2023-06-19T07:11:43;20.70;81.60
44843;DHT22;31884;52.538;13.820;2023-06-19T07:14:08;20.80;80.70
44843;DHT22;31884;52.538;13.820;2023-06-19T07:16:34;20.90;80.30
44843;DHT22;31884;52.538;13.820;2023-06-19T07:18:59;21.00;80.40
44843;DHT22;31884;52.538;13.820;2023-06-19T07:21:27;21.10;80.40
44843;DHT22;31884;52.538;13.820;2023-06-19T07:23:53;21.20;80.20
44843;DHT22;31884;52.538;13.820;2023-06-19T07:26:19;21.30;80.20
44843;DHT22;31884;52.538;13.820;2023-06-19T07:28:44;21.20;78.70
44843;DHT22;31884;52.538;13.820;2023-06-19T07:31:10;21.20;78.80
44843;DHT22;31884;52.538;13.820;2023-06-19T07:33:35;21.20;78.10
44843;DHT22;31884;52.538;13.820;2023-06-19T07:36:01;21.30;77.60
44843;DHT22;31884;52.538;13.820;2023-06-19T07:38:30;21.30;78.10
44843;DHT22;31884;52.538;13.820;2023-06-19T07:40:55;21.30;77.80
44843;DHT22;31884;52.538;13.820;2023-06-19T07:43:20;21.40;77.70
44843;DHT22;31884;52.538;13.820;2023-06-19T07:45:49;21.40;77.40
44843;DHT22;31884;52.538;13.820;2023-06-19T07:48:15;21.50;77.40
44843;DHT22;31884;52.538;13.820;2023-06-19T07:50:41;21.60;76.80
44843;DHT22;31884;52.538;13.820;2023-06-19T07:53:06;21.80;75.90
44843;DHT22;31884;52.538;13.820;2023-06-19T07:55:32;21.90;75.80
44843;DHT22;31884;52.538;13.820;2023-06-19T07:58:00;22.10;74.20
44843;DHT22;31884;52.538;13.820;2023-06-19T08:00:26;22.30;72.70
44843;DHT22;31884;52.538;13.820;2023-06-19T08:02:51;22.30;70.90
44843;DHT22;31884;52.538;13.820;2023-06-19T08:05:17;22.30;67.80
44843;DHT22;31884;52.538;13.820;2023-06-19T08:07:42;22.20;70.10
44843;DHT22;31884;52.538;13.820;2023-06-19T08:10:08;22.30;70.00
44843;DHT22;31884;52.538;13.820;2023-06-19T08:12:33;22.40;70.10
44843;DHT22;31884;52.538;13.820;2023-06-19T08:14:59;22.40;69.40
44843;DHT22;31884;52.538;13.820;2023-06-19T08:17:24;22.50;69.60
44843;DHT22;31884;52.538;13.820;2023-06-19T08:19:50;22.70;70.10
44843;DHT22;31884;52.538;13.820;2023-06-19T08:22:15;22.80;69.30
44843;DHT22;31884;52.538;13.820;2023-06-19T08:24:41;22.90;67.90
44843;DHT22;31884;52.538;13.820;2023-06-19T08:27:07;23.00;67.70
44843;DHT22;31884;52.538;13.820;2023-06-19T08:29:33;23.00;66.90
44843;DHT22;31884;52.538;13.820;2023-06-19T08:31:58;23.00;66.90
44843;DHT22;31884;52.538;13.820;2023-06-19T08:34:24;23.10;66.50
44843;DHT22;31884;52.538;13.820;2023-06-19T08:36:49;23.10;66.60
44843;DHT22;31884;52.538;13.820;2023-06-19T08:39:14;23.20;66.00
44843;DHT22;31884;52.538;13.820;2023-06-19T08:41:40;23.20;65.30
44843;DHT22;31884;52.538;13.820;2023-06-19T08:44:07;23.20;65.00
44843;DHT22;31884;52.538;13.820;2023-06-19T08:46:34;23.30;65.00
44843;DHT22;31884;52.538;13.820;2023-06-19T08:49:00;23.20;63.50
44843;DHT22;31884;52.538;13.820;2023-06-19T08:51:27;23.10;64.00
44843;DHT22;31884;52.538;13.820;2023-06-19T08:54:04;23.20;64.30
44843;DHT22;31884;52.538;13.820;2023-06-19T08:56:31;23.30;63.10
44843;DHT22;31884;52.538;13.820;2023-06-19T08:59:12;23.20;61.90
44843;DHT22;31884;52.538;13.820;2023-06-19T09:01:39;23.30;62.50
44843;DHT22;31884;52.538;13.820;2023-06-19T09:04:12;23.40;63.70
44843;DHT22;31884;52.538;13.820;2023-06-19T09:06:52;23.50;61.90
44843;DHT22;31884;52.538;13.820;2023-06-19T09:09:19;23.60;61.80
44843;DHT22;31884;52.538;13.820;2023-06-19T09:11:57;23.60;62.00
44843;DHT22;31884;52.538;13.820;2023-06-19T09:14:43;23.80;61.50
44843;DHT22;31884;52.538;13.820;2023-06-19T09:17:17;24.00;61.40
44843;DHT22;31884;52.538;13.820;2023-06-19T09:19:50;24.30;61.20
44843;DHT22;31884;52.538;13.820;2023-06-19T09:22:17;24.40;56.30
44843;DHT22;31884;52.538;13.820;2023-06-19T09:24:46;24.40;58.70
44843;DHT22;31884;52.538;13.820;2023-06-19T09:27:14;24.40;57.00
44843;DHT22;31884;52.538;13.820;2023-06-19T09:29:41;24.60;57.10
44843;DHT22;31884;52.538;13.820;2023-06-19T09:32:17;24.70;57.00
44843;DHT22;31884;52.538;13.820;2023-06-19T09:34:43;24.80;54.70
44843;DHT22;31884;52.538;13.820;2023-06-19T09:37:09;24.90;56.50
44843;DHT22;31884;52.538;13.820;2023-06-19T09:39:37;25.10;56.30
44843;DHT22;31884;52.538;13.820;2023-06-19T09:42:03;25.20;55.00
44843;DHT22;31884;52.538;13.820;2023-06-19T09:44:31;25.20;54.80
44843;DHT22;31884;52.538;13.820;2023-06-19T09:47:03;25.30;55.20
44843;DHT22;31884;52.538;13.820;2023-06-19T09:49:32;25.30;53.90
44843;DHT22;31884;52.538;13.820;2023-06-19T09:51:59;25.40;55.00
44843;DHT22;31884;52.538;13.820;2023-06-19T09:54:25;25.50;54.20
44843;DHT22;31884;52.538;13.820;2023-06-19T09:56:52;25.50;54.30
44843;DHT22;31884;52.538;13.820;2023-06-19T09:59:21;25.60;53.80
44843;DHT22;31884;52.538;13.820;2023-06-19T10:01:47;25.80;53.90
44843;DHT22;31884;52.538;13.820;2023-06-19T10:04:14;25.80;52.50
44843;DHT22;31884;52.538;13.820;2023-06-19T10:06:46;25.90;50.30
44843;DHT22;31884;52.538;13.820;2023-06-19T10:09:14;25.80;50.40
44843;DHT22;31884;52.538;13.820;2023-06-19T10:11:50;25.90;51.50
44843;DHT22;31884;52.538;13.820;2023-06-19T10:14:20;25.80;49.60
44843;DHT22;31884;52.538;13.820;2023-06-19T10:16:46;25.80;51.10
44843;DHT22;31884;52.538;13.820;2023-06-19T10:19:14;26.00;51.60
44843;DHT22;31884;52.538;13.820;2023-06-19T10:21:54;26.10;50.50
44843;DHT22;31884;52.538;13.820;2023-06-19T10:24:20;26.10;50.50
44843;DHT22;31884;52.538;13.820;2023-06-19T10:27:02;26.10;50.40
44843;DHT22;31884;52.538;13.820;2023-06-19T10:29:38;26.20;48.70
44843;DHT22;31884;52.538;13.820;2023-06-19T10:32:04;26.40;49.20
44843;DHT22;31884;52.538;13.820;2023-06-19T10:34:34;26.60;49.90
44843;DHT22;31884;52.538;13.820;2023-06-19T10:36:59;26.60;48.60
44843;DHT22;31884;52.538;13.820;2023-06-19T10:39:25;26.80;49.20
44843;DHT22;31884;52.538;13.820;2023-06-19T10:41:50;26.70;48.50
44843;DHT22;31884;52.538;13.820;2023-06-19T10:44:16;26.80;48.50
44843;DHT22;31884;52.538;13.820;2023-06-19T10:46:41;26.90;48.50
44843;DHT22;31884;52.538;13.820;2023-06-19T10:49:08;27.00;47.80
44843;DHT22;31884;52.538;13.820;2023-06-19T10:51:37;27.20;47.60
44843;DHT22;31884;52.538;13.820;2023-06-19T10:54:03;27.30;44.60
44843;DHT22;31884;52.538;13.820;2023-06-19T10:56:29;27.30;46.00
44843;DHT22;31884;52.538;13.820;2023-06-19T10:59:02;27.00;44.10
44843;DHT22;31884;52.538;13.820;2023-06-19T11:01:40;27.10;44.90
44843;DHT22;31884;52.538;13.820;2023-06-19T11:04:08;27.30;43.60
44843;DHT22;31884;52.538;13.820;2023-06-19T11:06:34;27.40;41.90
44843;DHT22;31884;52.538;13.820;2023-06-19T11:09:01;27.50;44.50
44843;DHT22;31884;52.538;13.820;2023-06-19T11:11:44;27.60;44.30
44843;DHT22;31884;52.538;13.820;2023-06-19T11:14:11;27.80;41.80
44843;DHT22;31884;52.538;13.820;2023-06-19T11:16:42;27.90;42.70
44843;DHT22;31884;52.538;13.820;2023-06-19T11:19:09;27.90;41.60
44843;DHT22;31884;52.538;13.820;2023-06-19T11:21:36;27.90;41.60
44843;DHT22;31884;52.538;13.820;2023-06-19T11:24:05;27.90;41.40
44843;DHT22;31884;52.538;13.820;2023-06-19T11:26:37;27.70;41.90
44843;DHT22;31884;52.538;13.820;2023-06-19T11:29:13;27.30;41.50
44843;DHT22;31884;52.538;13.820;2023-06-19T11:31:39;27.10;42.60
44843;DHT22;31884;52.538;13.820;2023-06-19T11:34:04;27.10;43.30
44843;DHT22;31884;52.538;13.820;2023-06-19T11:36:30;27.20;42.90
44843;DHT22;31884;52.538;13.820;2023-06-19T11:38:55;27.10;42.80
44843;DHT22;31884;52.538;13.820;2023-06-19T11:41:28;27.10;43.50
44843;DHT22;31884;52.538;13.820;2023-06-19T11:43:58;26.90;42.00
44843;DHT22;31884;52.538;13.820;2023-06-19T11:46:31;26.70;41.50
44843;DHT22;31884;52.538;13.820;2023-06-19T11:49:13;26.70;41.90
44843;DHT22;31884;52.538;13.820;2023-06-19T11:51:40;26.80;41.60
44843;DHT22;31884;52.538;13.820;2023-06-19T11:54:07;26.80;40.90
44843;DHT22;31884;52.538;13.820;2023-06-19T11:56:34;26.80;39.80
44843;DHT22;31884;52.538;13.820;2023-06-19T11:59:01;26.70;41.00
44843;DHT22;31884;52.538;13.820;2023-06-19T12:01:27;26.60;39.60
44843;DHT22;31884;52.538;13.820;2023-06-19T12:03:52;26.70;40.60
44843;DHT22;31884;52.538;13.820;2023-06-19T12:06:18;26.90;40.00
44843;DHT22;31884;52.538;13.820;2023-06-19T12:08:43;27.10;39.80
44843;DHT22;31884;52.538;13.820;2023-06-19T12:11:09;27.20;39.40
44843;DHT22;31884;52.538;13.820;2023-06-19T12:13:35;27.30;39.00
44843;DHT22;31884;52.538;13.820;2023-06-19T12:16:01;27.40;39.10
44843;DHT22;31884;52.538;13.820;2023-06-19T12:18:27;27.40;38.80
44843;DHT22;31884;52.538;13.820;2023-06-19T12:20:52;27.50;38.50
44843;DHT22;31884;52.538;13.820;2023-06-19T12:23:18;27.70;37.40
44843;DHT22;31884;52.538;13.820;2023-06-19T12:25:43;27.60;36.90
44843;DHT22;31884;52.538;13.820;2023-06-19T12:28:09;27.70;37.70
44843;DHT22;31884;52.538;13.820;2023-06-19T12:30:35;27.70;37.80
44843;DHT22;31884;52.538;13.820;2023-06-19T12:33:01;27.60;37.60
44843;DHT22;31884;52.538;13.820;2023-06-19T12:35:28;27.80;37.50
44843;DHT22;31884;52.538;13.820;2023-06-19T12:37:54;27.80;37.40
44843;DHT22;31884;52.538;13.820;2023-06-19T12:40:20;27.80;35.70
44843;DHT22;31884;52.538;13.820;2023-06-19T12:42:46;28.00;36.30
44843;DHT22;31884;52.538;13.820;2023-06-19T12:45:11;28.10;35.00
44843;DHT22;31884;52.538;13.820;2023-06-19T12:47:37;28.10;35.20
44843;DHT22;31884;52.538;13.820;2023-06-19T12:50:03;28.00;35.50
44843;DHT22;31884;52.538;13.820;2023-06-19T12:52:29;28.10;34.70
44843;DHT22;31884;52.538;13.820;2023-06-19T12:54:55;28.20;35.60
44843;DHT22;31884;52.538;13.820;2023-06-19T12:57:21;28.00;34.70
44843;DHT22;31884;52.538;13.820;2023-06-19T12:59:46;28.10;34.00
44843;DHT22;31884;52.538;13.820;2023-06-19T13:02:12;28.30;33.30
44843;DHT22;31884;52.538;13.820;2023-06-19T13:04:37;28.30;31.90
44843;DHT22;31884;52.538;13.820;2023-06-19T13:07:03;28.40;32.50
44843;DHT22;31884;52.538;13.820;2023-06-19T13:09:29;28.60;32.50
44843;DHT22;31884;52.538;13.820;2023-06-19T13:11:55;28.70;29.00
44843;DHT22;31884;52.538;13.820;2023-06-19T13:14:20;28.70;25.90
44843;DHT22;31884;52.538;13.820;2023-06-19T13:16:46;28.70;25.90
44843;DHT22;31884;52.538;13.820;2023-06-19T13:19:12;28.50;25.80
44843;DHT22;31884;52.538;13.820;2023-06-19T13:21:37;28.50;25.30
44843;DHT22;31884;52.538;13.820;2023-06-19T13:24:03;28.40;25.20
44843;DHT22;31884;52.538;13.820;2023-06-19T13:26:28;28.40;25.40
44843;DHT22;31884;52.538;13.820;2023-06-19T13:28:54;28.30;25.60
44843;DHT22;31884;52.538;13.820;2023-06-19T13:31:24;28.20;25.70
44843;DHT22;31884;52.538;13.820;2023-06-19T13:33:49;28.10;23.10
44843;DHT22;31884;52.538;13.820;2023-06-19T13:36:15;27.90;23.70
44843;DHT22;31884;52.538;13.820;2023-06-19T13:38:40;27.70;24.10
44843;DHT22;31884;52.538;13.820;2023-06-19T13:41:06;27.60;23.20
44843;DHT22;31884;52.538;13.820;2023-06-19T13:43:32;27.70;23.40
44843;DHT22;31884;52.538;13.820;2023-06-19T13:45:57;27.50;22.30
44843;DHT22;31884;52.538;13.820;2023-06-19T13:48:23;27.60;23.00
44843;DHT22;31884;52.538;13.820;2023-06-19T13:50:48;27.70;23.60
44843;DHT22;31884;52.538;13.820;2023-06-19T13:53:14;27.70;23.60
44843;DHT22;31884;52.538;13.820;2023-06-19T13:55:39;27.60;23.30
44843;DHT22;31884;52.538;13.820;2023-06-19T13:58:04;27.50;23.80
44843;DHT22;31884;52.538;13.820;2023-06-19T14:00:30;27.50;24.20
44843;DHT22;31884;52.538;13.820;2023-06-19T14:02:56;27.50;25.10
44843;DHT22;31884;52.538;13.820;2023-06-19T14:05:21;27.60;24.30
44843;DHT22;31884;52.538;13.820;2023-06-19T14:07:47;27.80;24.60
44843;DHT22;31884;52.538;13.820;2023-06-19T14:10:12;27.90;23.80
44843;DHT22;31884;52.538;13.820;2023-06-19T14:12:38;28.00;23.90
44843;DHT22;31884;52.538;13.820;2023-06-19T14:15:06;27.90;24.00
44843;DHT22;31884;52.538;13.820;2023-06-19T14:17:32;28.00;24.10
44843;DHT22;31884;52.538;13.820;2023-06-19T14:19:58;28.00;23.80
44843;DHT22;31884;52.538;13.820;2023-06-19T14:22:23;28.00;24.10
44843;DHT22;31884;52.538;13.820;2023-06-19T14:24:49;28.00;23.90
44843;DHT22;31884;52.538;13.820;2023-06-19T14:27:15;28.00;25.00
44843;DHT22;31884;52.538;13.820;2023-06-19T14:29:40;28.00;24.00
44843;DHT22;31884;52.538;13.820;2023-06-19T14:32:06;28.00;23.30
44843;DHT22;31884;52.538;13.820;2023-06-19T14:34:31;27.90;23.80
44843;DHT22;31884;52.538;13.820;2023-06-19T14:36:57;27.90;23.80
44843;DHT22;31884;52.538;13.820;2023-06-19T14:39:22;27.80;23.70
44843;DHT22;31884;52.538;13.820;2023-06-19T14:41:48;27.80;23.90
44843;DHT22;31884;52.538;13.820;2023-06-19T14:44:13;27.90;23.90
44843;DHT22;31884;52.538;13.820;2023-06-19T14:46:38;28.00;24.00
44843;DHT22;31884;52.538;13.820;2023-06-19T14:49:09;28.00;23.70
44843;DHT22;31884;52.538;13.820;2023-06-19T14:51:35;28.20;23.90
44843;DHT22;31884;52.538;13.820;2023-06-19T14:54:01;28.30;24.00
44843;DHT22;31884;52.538;13.820;2023-06-19T14:56:26;28.40;24.40
44843;DHT22;31884;52.538;13.820;2023-06-19T14:58:51;28.40;24.30
44843;DHT22;31884;52.538;13.820;2023-06-19T15:01:17;28.50;24.40
44843;DHT22;31884;52.538;13.820;2023-06-19T15:03:43;28.50;25.00
44843;DHT22;31884;52.538;13.820;2023-06-19T15:06:08;28.60;24.10
44843;DHT22;31884;52.538;13.820;2023-06-19T15:08:34;28.60;24.50
44843;DHT22;31884;52.538;13.820;2023-06-19T15:11:01;28.60;24.70
44843;DHT22;31884;52.538;13.820;2023-06-19T15:13:27;28.70;24.80
44843;DHT22;31884;52.538;13.820;2023-06-19T15:15:53;28.60;25.00